sensor_id;sensor_type;location;lat;lon;timestamp;pressure;altitude;pressure_sealevel;temperature;humidity
74633;BME280;63139;52.018;8.552;2024-01-11T00:00:56;102132.97;;;-6.34;96.48
74633;BME280;63139;52.018;8.552;2024-01-11T00:03:25;102133.84;;;-6.36;96.91
74633;BME280;63139;52.018;8.552;2024-01-11T00:05:54;102128.75;;;-6.38;96.81
74633;BME280;63139;52.018;8.552;2024-01-11T00:08:22;102121.91;;;-6.39;97.17
74633;BME280;63139;52.018;8.552;2024-01-11T00:10:50;102121.91;;;-6.42;97.20
74633;BME280;63139;52.018;8.552;2024-01-11T00:13:19;102124.50;;;-6.42;97.41
74633;BME280;63139;52.018;8.552;2024-01-11T00:15:47;102115.03;;;-6.41;97.51
74633;BME280;63139;52.018;8.552;2024-01-11T00:18:15;102116.78;;;-6.43;97.07
74633;BME280;63139;52.018;8.552;2024-01-11T00:20:44;102115.06;;;-6.43;97.20
74633;BME280;63139;52.018;8.552;2024-01-11T00:23:12;102108.19;;;-6.44;96.99
74633;BME280;63139;52.018;8.552;2024-01-11T00:25:40;102103.94;;;-6.45;97.55
74633;BME280;63139;52.018;8.552;2024-01-11T00:28:08;102104.81;;;-6.46;97.30
74633;BME280;63139;52.018;8.552;2024-01-11T00:30:37;102111.72;;;-6.49;96.76
74633;BME280;63139;52.018;8.552;2024-01-11T00:33:05;102099.72;;;-6.50;97.55
74633;BME280;63139;52.018;8.552;2024-01-11T00:35:34;102107.41;;;-6.49;97.77
74633;BME280;63139;52.018;8.552;2024-01-11T00:38:02;102114.28;;;-6.49;97.61
74633;BME280;63139;52.018;8.552;2024-01-11T00:40:30;102110.00;;;-6.50;97.73
74633;BME280;63139;52.018;8.552;2024-01-11T00:42:58;102110.00;;;-6.50;97.68
74633;BME280;63139;52.018;8.552;2024-01-11T00:45:25;102105.72;;;-6.51;96.87
74633;BME280;63139;52.018;8.552;2024-01-11T00:47:55;102103.19;;;-6.53;97.13
74633;BME280;63139;52.018;8.552;2024-01-11T00:50:23;102095.47;;;-6.54;96.81
74633;BME280;63139;52.018;8.552;2024-01-11T00:52:51;102106.63;;;-6.54;97.29
74633;BME280;63139;52.018;8.552;2024-01-11T00:55:19;102106.66;;;-6.55;97.02
74633;BME280;63139;52.018;8.552;2024-01-11T00:57:46;102111.81;;;-6.55;97.04
74633;BME280;63139;52.018;8.552;2024-01-11T01:00:14;102106.66;;;-6.55;97.00
74633;BME280;63139;52.018;8.552;2024-01-11T01:02:42;102114.38;;;-6.57;97.42
74633;BME280;63139;52.018;8.552;2024-01-11T01:05:12;102116.13;;;-6.59;96.93
74633;BME280;63139;52.018;8.552;2024-01-11T01:07:40;102128.19;;;-6.59;96.72
74633;BME280;63139;52.018;8.552;2024-01-11T01:10:08;102132.47;;;-6.60;96.83
74633;BME280;63139;52.018;8.552;2024-01-11T01:12:36;102141.06;;;-6.62;96.07
74633;BME280;63139;52.018;8.552;2024-01-11T01:15:04;102140.22;;;-6.63;96.23
74633;BME280;63139;52.018;8.552;2024-01-11T01:17:32;102134.22;;;-6.65;96.95
74633;BME280;63139;52.018;8.552;2024-01-11T01:20:01;102141.94;;;-6.65;97.38
74633;BME280;63139;52.018;8.552;2024-01-11T01:22:32;102141.94;;;-6.65;97.13
74633;BME280;63139;52.018;8.552;2024-01-11T01:25:00;102127.38;;;-6.66;97.05
74633;BME280;63139;52.018;8.552;2024-01-11T01:27:28;102121.34;;;-6.65;97.11
74633;BME280;63139;52.018;8.552;2024-01-11T01:29:56;102131.66;;;-6.67;97.94
74633;BME280;63139;52.018;8.552;2024-01-11T01:32:23;102135.94;;;-6.66;97.96
74633;BME280;63139;52.018;8.552;2024-01-11T01:34:53;102129.94;;;-6.66;98.21
74633;BME280;63139;52.018;8.552;2024-01-11T01:37:21;102121.34;;;-6.63;98.07
74633;BME280;63139;52.018;8.552;2024-01-11T01:39:50;102112.75;;;-6.64;97.61
74633;BME280;63139;52.018;8.552;2024-01-11T01:42:18;102127.38;;;-6.66;97.39
74633;BME280;63139;52.018;8.552;2024-01-11T01:44:46;102128.22;;;-6.66;97.56
74633;BME280;63139;52.018;8.552;2024-01-11T01:47:13;102129.94;;;-6.66;97.46
74633;BME280;63139;52.018;8.552;2024-01-11T01:49:42;102135.06;;;-6.64;97.55
74633;BME280;63139;52.018;8.552;2024-01-11T01:52:13;102127.38;;;-6.66;96.83
74633;BME280;63139;52.018;8.552;2024-01-11T01:54:41;102129.06;;;-6.65;97.78
74633;BME280;63139;52.018;8.552;2024-01-11T01:57:11;102133.41;;;-6.67;97.11
74633;BME280;63139;52.018;8.552;2024-01-11T01:59:40;102136.00;;;-6.67;97.18
74633;BME280;63139;52.018;8.552;2024-01-11T02:02:10;102126.50;;;-6.67;97.28
74633;BME280;63139;52.018;8.552;2024-01-11T02:04:38;102133.41;;;-6.67;97.14
74633;BME280;63139;52.018;8.552;2024-01-11T02:07:06;102130.84;;;-6.67;96.73
74633;BME280;63139;52.018;8.552;2024-01-11T02:09:35;102130.84;;;-6.67;97.13
74633;BME280;63139;52.018;8.552;2024-01-11T02:12:04;102136.00;;;-6.67;96.47
74633;BME280;63139;52.018;8.552;2024-01-11T02:14:34;102140.28;;;-6.68;96.55
74633;BME280;63139;52.018;8.552;2024-01-11T02:17:02;102131.72;;;-6.70;96.67
74633;BME280;63139;52.018;8.552;2024-01-11T02:19:30;102130.00;;;-6.69;96.38
74633;BME280;63139;52.018;8.552;2024-01-11T02:21:59;102139.44;;;-6.70;96.17
74633;BME280;63139;52.018;8.552;2024-01-11T02:24:29;102123.13;;;-6.70;96.66
74633;BME280;63139;52.018;8.552;2024-01-11T02:26:58;102118.00;;;-6.70;96.51
74633;BME280;63139;52.018;8.552;2024-01-11T02:29:27;102108.53;;;-6.68;97.68
74633;BME280;63139;52.018;8.552;2024-01-11T02:31:56;102100.81;;;-6.70;97.14
74633;BME280;63139;52.018;8.552;2024-01-11T02:34:26;102116.25;;;-6.68;97.31
74633;BME280;63139;52.018;8.552;2024-01-11T02:36:54;102130.00;;;-6.69;97.08
74633;BME280;63139;52.018;8.552;2024-01-11T02:39:24;102138.56;;;-6.69;98.36
74633;BME280;63139;52.018;8.552;2024-01-11T02:41:56;102129.94;;;-6.66;99.00
74633;BME280;63139;52.018;8.552;2024-01-11T02:44:24;102121.38;;;-6.67;99.10
74633;BME280;63139;52.018;8.552;2024-01-11T02:46:52;102132.50;;;-6.64;98.96
74633;BME280;63139;52.018;8.552;2024-01-11T02:49:20;102139.34;;;-6.63;98.92
74633;BME280;63139;52.018;8.552;2024-01-11T02:51:48;102133.34;;;-6.62;98.97
74633;BME280;63139;52.018;8.552;2024-01-11T02:54:16;102119.59;;;-6.61;99.15
74633;BME280;63139;52.018;8.552;2024-01-11T02:56:44;102117.88;;;-6.61;98.42
74633;BME280;63139;52.018;8.552;2024-01-11T02:59:13;102135.91;;;-6.61;98.63
74633;BME280;63139;52.018;8.552;2024-01-11T03:01:41;102139.34;;;-6.60;98.52
74633;BME280;63139;52.018;8.552;2024-01-11T03:04:08;102140.19;;;-6.60;98.75
74633;BME280;63139;52.018;8.552;2024-01-11T03:06:36;102142.78;;;-6.60;98.70
74633;BME280;63139;52.018;8.552;2024-01-11T03:09:04;102129.03;;;-6.60;98.64
74633;BME280;63139;52.018;8.552;2024-01-11T03:11:32;102128.19;;;-6.61;98.91
74633;BME280;63139;52.018;8.552;2024-01-11T03:14:00;102132.47;;;-6.61;98.57
74633;BME280;63139;52.018;8.552;2024-01-11T03:16:30;102136.72;;;-6.59;98.53
74633;BME280;63139;52.018;8.552;2024-01-11T03:18:58;102142.78;;;-6.60;98.52
74633;BME280;63139;52.018;8.552;2024-01-11T03:21:26;102145.34;;;-6.60;98.16
74633;BME280;63139;52.018;8.552;2024-01-11T03:23:54;102144.50;;;-6.63;97.61
74633;BME280;63139;52.018;8.552;2024-01-11T03:26:22;102131.63;;;-6.62;98.66
74633;BME280;63139;52.018;8.552;2024-01-11T03:28:50;102129.91;;;-6.63;97.98
74633;BME280;63139;52.018;8.552;2024-01-11T03:31:18;102131.63;;;-6.62;99.45
74633;BME280;63139;52.018;8.552;2024-01-11T03:33:47;102135.91;;;-6.62;98.46
74633;BME280;63139;52.018;8.552;2024-01-11T03:36:15;102135.91;;;-6.61;99.07
74633;BME280;63139;52.018;8.552;2024-01-11T03:38:42;102128.19;;;-6.61;98.84
74633;BME280;63139;52.018;8.552;2024-01-11T03:41:10;102128.19;;;-6.61;98.56
74633;BME280;63139;52.018;8.552;2024-01-11T03:43:38;102121.28;;;-6.59;99.54
74633;BME280;63139;52.018;8.552;2024-01-11T03:46:06;102123.84;;;-6.57;99.36
74633;BME280;63139;52.018;8.552;2024-01-11T03:48:34;102127.25;;;-6.57;98.85
74633;BME280;63139;52.018;8.552;2024-01-11T03:51:04;102133.25;;;-6.56;98.60
74633;BME280;63139;52.018;8.552;2024-01-11T03:53:34;102137.56;;;-6.55;97.98
74633;BME280;63139;52.018;8.552;2024-01-11T03:56:03;102149.56;;;-6.54;98.11
74633;BME280;63139;52.018;8.552;2024-01-11T03:58:31;102146.13;;;-6.55;97.73
74633;BME280;63139;52.018;8.552;2024-01-11T04:01:00;102155.56;;;-6.52;97.42
74633;BME280;63139;52.018;8.552;2024-01-11T04:03:28;102156.41;;;-6.53;97.69
74633;BME280;63139;52.018;8.552;2024-01-11T04:05:56;102165.03;;;-6.56;97.65
74633;BME280;63139;52.018;8.552;2024-01-11T04:08:25;102159.00;;;-6.55;97.98
74633;BME280;63139;52.018;8.552;2024-01-11T04:10:53;102171.00;;;-6.54;97.57
74633;BME280;63139;52.018;8.552;2024-01-11T04:13:20;102167.59;;;-6.54;97.13
74633;BME280;63139;52.018;8.552;2024-01-11T04:15:50;102176.19;;;-6.55;97.17
74633;BME280;63139;52.018;8.552;2024-01-11T04:18:18;102156.44;;;-6.55;97.19
74633;BME280;63139;52.018;8.552;2024-01-11T04:20:46;102161.56;;;-6.55;96.68
74633;BME280;63139;52.018;8.552;2024-01-11T04:23:14;102174.44;;;-6.53;97.42
74633;BME280;63139;52.018;8.552;2024-01-11T04:25:43;102172.69;;;-6.51;97.64
74633;BME280;63139;52.018;8.552;2024-01-11T04:28:11;102165.00;;;-6.53;97.75
74633;BME280;63139;52.018;8.552;2024-01-11T04:30:39;102170.09;;;-6.51;97.57
74633;BME280;63139;52.018;8.552;2024-01-11T04:33:07;102169.25;;;-6.50;97.33
74633;BME280;63139;52.018;8.552;2024-01-11T04:35:35;102166.69;;;-6.52;96.59
74633;BME280;63139;52.018;8.552;2024-01-11T04:38:03;102165.88;;;-6.54;95.59
74633;BME280;63139;52.018;8.552;2024-01-11T04:40:31;102150.41;;;-6.54;96.13
74633;BME280;63139;52.018;8.552;2024-01-11T04:43:00;102159.00;;;-6.53;96.05
74633;BME280;63139;52.018;8.552;2024-01-11T04:45:28;102165.88;;;-6.54;96.47
74633;BME280;63139;52.018;8.552;2024-01-11T04:47:56;102189.91;;;-6.53;96.50
74633;BME280;63139;52.018;8.552;2024-01-11T04:50:24;102177.88;;;-6.53;97.46
74633;BME280;63139;52.018;8.552;2024-01-11T04:52:52;102172.69;;;-6.51;97.37
74633;BME280;63139;52.018;8.552;2024-01-11T04:55:20;102178.69;;;-6.51;97.58
74633;BME280;63139;52.018;8.552;2024-01-11T04:57:47;102164.94;;;-6.50;97.33
74633;BME280;63139;52.018;8.552;2024-01-11T05:00:17;102168.38;;;-6.49;96.81
74633;BME280;63139;52.018;8.552;2024-01-11T05:02:45;102165.78;;;-6.49;96.69
74633;BME280;63139;52.018;8.552;2024-01-11T05:05:13;102153.78;;;-6.49;96.78
74633;BME280;63139;52.018;8.552;2024-01-11T05:07:41;102133.16;;;-6.49;96.35
74633;BME280;63139;52.018;8.552;2024-01-11T05:10:09;102127.16;;;-6.48;96.44
74633;BME280;63139;52.018;8.552;2024-01-11T05:12:37;102116.00;;;-6.48;96.54
74633;BME280;63139;52.018;8.552;2024-01-11T05:15:05;102107.41;;;-6.49;97.02
74633;BME280;63139;52.018;8.552;2024-01-11T05:17:35;102104.84;;;-6.47;97.57
74633;BME280;63139;52.018;8.552;2024-01-11T05:20:04;102118.56;;;-6.47;96.88
74633;BME280;63139;52.018;8.552;2024-01-11T05:22:32;102123.72;;;-6.48;97.43
74633;BME280;63139;52.018;8.552;2024-01-11T05:25:01;102129.72;;;-6.46;98.38
74633;BME280;63139;52.018;8.552;2024-01-11T05:27:28;102134.88;;;-6.46;98.22
74633;BME280;63139;52.018;8.552;2024-01-11T05:29:56;102142.59;;;-6.46;97.83
74633;BME280;63139;52.018;8.552;2024-01-11T05:32:24;102154.63;;;-6.47;97.73
74633;BME280;63139;52.018;8.552;2024-01-11T05:34:53;102155.47;;;-6.45;98.04
74633;BME280;63139;52.018;8.552;2024-01-11T05:37:21;102158.00;;;-6.43;98.12
74633;BME280;63139;52.018;8.552;2024-01-11T05:39:49;102156.28;;;-6.43;98.57
74633;BME280;63139;52.018;8.552;2024-01-11T05:42:16;102164.84;;;-6.42;98.30
74633;BME280;63139;52.018;8.552;2024-01-11T05:44:44;102160.53;;;-6.40;98.46
74633;BME280;63139;52.018;8.552;2024-01-11T05:47:12;102165.69;;;-6.39;97.88
74633;BME280;63139;52.018;8.552;2024-01-11T05:49:40;102172.50;;;-6.36;97.89
74633;BME280;63139;52.018;8.552;2024-01-11T05:52:09;102183.63;;;-6.34;97.90
74633;BME280;63139;52.018;8.552;2024-01-11T05:54:37;102170.75;;;-6.34;97.17
74633;BME280;63139;52.018;8.552;2024-01-11T05:57:04;102183.63;;;-6.33;98.59
74633;BME280;63139;52.018;8.552;2024-01-11T05:59:33;102184.47;;;-6.31;98.54
74633;BME280;63139;52.018;8.552;2024-01-11T06:02:01;102184.44;;;-6.29;99.12
74633;BME280;63139;52.018;8.552;2024-01-11T06:04:32;102201.59;;;-6.28;99.99
74633;BME280;63139;52.018;8.552;2024-01-11T06:06:59;102223.03;;;-6.24;99.95
74633;BME280;63139;52.018;8.552;2024-01-11T06:09:28;102231.63;;;-6.25;100.00
74633;BME280;63139;52.018;8.552;2024-01-11T06:11:56;102240.22;;;-6.25;100.00
74633;BME280;63139;52.018;8.552;2024-01-11T06:14:24;102242.78;;;-6.23;100.00
74633;BME280;63139;52.018;8.552;2024-01-11T06:16:54;102245.31;;;-6.22;100.00
74633;BME280;63139;52.018;8.552;2024-01-11T06:19:22;102241.00;;;-6.18;100.00
74633;BME280;63139;52.018;8.552;2024-01-11T06:21:50;102237.53;;;-6.16;100.00
74633;BME280;63139;52.018;8.552;2024-01-11T06:24:18;102218.59;;;-6.13;100.00
74633;BME280;63139;52.018;8.552;2024-01-11T06:26:47;102200.53;;;-6.13;100.00
74633;BME280;63139;52.018;8.552;2024-01-11T06:29:15;102195.38;;;-6.10;100.00
74633;BME280;63139;52.018;8.552;2024-01-11T06:31:43;102198.78;;;-6.10;99.24
74633;BME280;63139;52.018;8.552;2024-01-11T06:34:11;102201.38;;;-6.08;99.30
74633;BME280;63139;52.018;8.552;2024-01-11T06:36:38;102199.59;;;-6.06;98.90
74633;BME280;63139;52.018;8.552;2024-01-11T06:39:06;102203.03;;;-6.07;98.39
74633;BME280;63139;52.018;8.552;2024-01-11T06:41:35;102191.91;;;-6.08;97.81
74633;BME280;63139;52.018;8.552;2024-01-11T06:44:04;102184.19;;;-6.08;98.34
74633;BME280;63139;52.018;8.552;2024-01-11T06:46:32;102171.28;;;-6.08;98.01
74633;BME280;63139;52.018;8.552;2024-01-11T06:49:00;102170.44;;;-6.08;97.83
74633;BME280;63139;52.018;8.552;2024-01-11T06:51:28;102169.59;;;-6.09;98.29
74633;BME280;63139;52.018;8.552;2024-01-11T06:53:55;102163.59;;;-6.11;97.11
74633;BME280;63139;52.018;8.552;2024-01-11T06:56:23;102163.59;;;-6.12;98.20
74633;BME280;63139;52.018;8.552;2024-01-11T06:58:51;102166.16;;;-6.09;98.54
74633;BME280;63139;52.018;8.552;2024-01-11T07:01:20;102161.88;;;-6.10;97.86
74633;BME280;63139;52.018;8.552;2024-01-11T07:03:48;102163.59;;;-6.11;98.11
74633;BME280;63139;52.018;8.552;2024-01-11T07:06:17;102169.59;;;-6.09;97.50
74633;BME280;63139;52.018;8.552;2024-01-11T07:08:45;102176.47;;;-6.09;98.06
74633;BME280;63139;52.018;8.552;2024-01-11T07:11:13;102168.66;;;-6.06;98.48
74633;BME280;63139;52.018;8.552;2024-01-11T07:13:40;102172.09;;;-6.06;98.17
74633;BME280;63139;52.018;8.552;2024-01-11T07:16:09;102180.66;;;-6.04;98.68
74633;BME280;63139;52.018;8.552;2024-01-11T07:18:42;102173.78;;;-6.03;98.49
74633;BME280;63139;52.018;8.552;2024-01-11T07:21:10;102165.22;;;-6.04;97.99
74633;BME280;63139;52.018;8.552;2024-01-11T07:23:38;102175.50;;;-6.02;98.75
74633;BME280;63139;52.018;8.552;2024-01-11T07:26:06;102193.53;;;-6.01;98.61
74633;BME280;63139;52.018;8.552;2024-01-11T07:28:34;102198.63;;;-5.98;99.05
74633;BME280;63139;52.018;8.552;2024-01-11T07:31:03;102202.91;;;-5.97;99.79
74633;BME280;63139;52.018;8.552;2024-01-11T07:33:31;102209.75;;;-5.94;100.00
74633;BME280;63139;52.018;8.552;2024-01-11T07:36:00;102204.53;;;-5.90;100.00
74633;BME280;63139;52.018;8.552;2024-01-11T07:38:30;102199.34;;;-5.88;100.00
74633;BME280;63139;52.018;8.552;2024-01-11T07:40:58;102205.31;;;-5.86;100.00
74633;BME280;63139;52.018;8.552;2024-01-11T07:43:26;102198.44;;;-5.85;99.88
74633;BME280;63139;52.018;8.552;2024-01-11T07:46:03;102208.72;;;-5.84;99.46
74633;BME280;63139;52.018;8.552;2024-01-11T07:48:32;102206.97;;;-5.82;99.36
74633;BME280;63139;52.018;8.552;2024-01-11T07:51:01;102222.41;;;-5.79;99.36
74633;BME280;63139;52.018;8.552;2024-01-11T07:53:29;102224.94;;;-5.76;99.42
74633;BME280;63139;52.018;8.552;2024-01-11T07:55:59;102219.75;;;-5.74;99.46
74633;BME280;63139;52.018;8.552;2024-01-11T07:58:27;102215.44;;;-5.72;98.71
74633;BME280;63139;52.018;8.552;2024-01-11T08:00:55;102211.94;;;-5.70;98.78
74633;BME280;63139;52.018;8.552;2024-01-11T08:03:23;102215.34;;;-5.66;98.54
74633;BME280;63139;52.018;8.552;2024-01-11T08:05:51;102214.41;;;-5.62;98.52
74633;BME280;63139;52.018;8.552;2024-01-11T08:08:20;102217.78;;;-5.57;98.30
74633;BME280;63139;52.018;8.552;2024-01-11T08:10:48;102216.84;;;-5.52;98.34
74633;BME280;63139;52.018;8.552;2024-01-11T08:13:16;102228.78;;;-5.46;97.50
74633;BME280;63139;52.018;8.552;2024-01-11T08:15:44;102223.56;;;-5.41;97.79
74633;BME280;63139;52.018;8.552;2024-01-11T08:18:12;102224.38;;;-5.38;97.50
74633;BME280;63139;52.018;8.552;2024-01-11T08:20:40;102225.19;;;-5.34;97.31
74633;BME280;63139;52.018;8.552;2024-01-11T08:23:08;102234.56;;;-5.30;96.51
74633;BME280;63139;52.018;8.552;2024-01-11T08:25:37;102232.75;;;-5.25;97.31
74633;BME280;63139;52.018;8.552;2024-01-11T08:28:05;102230.13;;;-5.21;97.97
74633;BME280;63139;52.018;8.552;2024-01-11T08:30:33;102240.34;;;-5.15;98.20
74633;BME280;63139;52.018;8.552;2024-01-11T08:33:01;102271.22;;;-5.10;97.81
74633;BME280;63139;52.018;8.552;2024-01-11T08:35:30;102284.13;;;-5.10;97.46
74633;BME280;63139;52.018;8.552;2024-01-11T08:37:59;102282.50;;;-5.16;97.38
74633;BME280;63139;52.018;8.552;2024-01-11T08:40:27;102285.97;;;-5.18;97.94
74633;BME280;63139;52.018;8.552;2024-01-11T08:42:57;102270.34;;;-5.09;97.87
74633;BME280;63139;52.018;8.552;2024-01-11T08:45:25;102278.84;;;-5.01;97.86
74633;BME280;63139;52.018;8.552;2024-01-11T08:47:54;102278.78;;;-4.98;97.12
74633;BME280;63139;52.018;8.552;2024-01-11T08:50:23;102286.53;;;-4.98;96.72
74633;BME280;63139;52.018;8.552;2024-01-11T08:52:53;102292.56;;;-4.97;96.28
74633;BME280;63139;52.018;8.552;2024-01-11T08:55:22;102290.78;;;-4.95;96.95
74633;BME280;63139;52.018;8.552;2024-01-11T08:57:50;102301.03;;;-4.89;96.39
74633;BME280;63139;52.018;8.552;2024-01-11T09:00:19;102304.38;;;-4.83;97.13
74633;BME280;63139;52.018;8.552;2024-01-11T09:02:47;102295.66;;;-4.77;96.95
74633;BME280;63139;52.018;8.552;2024-01-11T09:05:16;102293.81;;;-4.71;96.95
74633;BME280;63139;52.018;8.552;2024-01-11T09:07:43;102281.66;;;-4.64;96.17
74633;BME280;63139;52.018;8.552;2024-01-11T09:10:12;102280.69;;;-4.58;95.76
74633;BME280;63139;52.018;8.552;2024-01-11T09:12:40;102259.06;;;-4.53;96.13
74633;BME280;63139;52.018;8.552;2024-01-11T09:15:08;102259.81;;;-4.48;95.08
74633;BME280;63139;52.018;8.552;2024-01-11T09:17:38;102247.66;;;-4.43;95.24
74633;BME280;63139;52.018;8.552;2024-01-11T09:20:07;102249.22;;;-4.34;95.90
74633;BME280;63139;52.018;8.552;2024-01-11T09:22:36;102232.75;;;-4.28;95.19
74633;BME280;63139;52.018;8.552;2024-01-11T09:25:04;102219.72;;;-4.22;94.82
74633;BME280;63139;52.018;8.552;2024-01-11T09:27:33;102219.53;;;-4.15;95.14
74633;BME280;63139;52.018;8.552;2024-01-11T09:30:02;102234.88;;;-4.07;95.13
74633;BME280;63139;52.018;8.552;2024-01-11T09:32:30;102240.72;;;-3.98;95.31
74633;BME280;63139;52.018;8.552;2024-01-11T09:35:00;102238.84;;;-3.91;94.71
74633;BME280;63139;52.018;8.552;2024-01-11T09:37:28;102241.38;;;-3.86;93.23
74633;BME280;63139;52.018;8.552;2024-01-11T09:39:56;102249.88;;;-3.81;92.77
74633;BME280;63139;52.018;8.552;2024-01-11T09:42:24;102250.59;;;-3.75;91.73
74633;BME280;63139;52.018;8.552;2024-01-11T09:44:53;102243.47;;;-3.65;92.47
74633;BME280;63139;52.018;8.552;2024-01-11T09:47:22;102249.34;;;-3.57;91.61
74633;BME280;63139;52.018;8.552;2024-01-11T09:49:50;102241.41;;;-3.49;91.03
74633;BME280;63139;52.018;8.552;2024-01-11T09:52:22;102261.13;;;-3.44;91.03
74633;BME280;63139;52.018;8.552;2024-01-11T09:54:52;102265.28;;;-3.38;90.79
74633;BME280;63139;52.018;8.552;2024-01-11T09:57:24;102273.72;;;-3.30;89.57
74633;BME280;63139;52.018;8.552;2024-01-11T09:59:54;102284.88;;;-3.27;89.55
74633;BME280;63139;52.018;8.552;2024-01-11T10:02:23;102282.88;;;-3.16;89.48
74633;BME280;63139;52.018;8.552;2024-01-11T10:04:53;102276.81;;;-3.15;88.99
74633;BME280;63139;52.018;8.552;2024-01-11T10:07:23;102268.72;;;-3.01;89.33
74633;BME280;63139;52.018;8.552;2024-01-11T10:09:51;102265.94;;;-2.93;88.72
74633;BME280;63139;52.018;8.552;2024-01-11T10:12:20;102263.38;;;-2.95;88.07
74633;BME280;63139;52.018;8.552;2024-01-11T10:14:51;102265.75;;;-2.86;87.62
74633;BME280;63139;52.018;8.552;2024-01-11T10:17:19;102265.59;;;-2.80;87.38
74633;BME280;63139;52.018;8.552;2024-01-11T10:19:52;102270.34;;;-2.63;87.16
74633;BME280;63139;52.018;8.552;2024-01-11T10:22:22;102253.53;;;-2.48;85.95
74633;BME280;63139;52.018;8.552;2024-01-11T10:25:08;102251.13;;;-2.23;86.50
74633;BME280;63139;52.018;8.552;2024-01-11T10:27:36;102248.00;;;-2.05;86.77
74633;BME280;63139;52.018;8.552;2024-01-11T10:30:05;102243.91;;;-1.83;86.55
74633;BME280;63139;52.018;8.552;2024-01-11T10:32:34;102248.31;;;-1.57;86.17
74633;BME280;63139;52.018;8.552;2024-01-11T10:35:02;102256.06;;;-1.28;85.02
74633;BME280;63139;52.018;8.552;2024-01-11T10:37:33;102250.97;;;-1.04;84.30
74633;BME280;63139;52.018;8.552;2024-01-11T10:40:04;102242.41;;;-0.82;83.27
74633;BME280;63139;52.018;8.552;2024-01-11T10:42:41;102236.34;;;-0.57;83.83
74633;BME280;63139;52.018;8.552;2024-01-11T10:45:14;102232.09;;;-0.35;82.36
74633;BME280;63139;52.018;8.552;2024-01-11T10:47:50;102229.84;;;-0.21;82.20
74633;BME280;63139;52.018;8.552;2024-01-11T10:50:22;102229.84;;;0.03;82.03
74633;BME280;63139;52.018;8.552;2024-01-11T10:53:02;102241.38;;;0.19;81.39
74633;BME280;63139;52.018;8.552;2024-01-11T10:55:33;102241.19;;;0.23;80.68
74633;BME280;63139;52.018;8.552;2024-01-11T10:58:01;102233.31;;;0.25;81.75
74633;BME280;63139;52.018;8.552;2024-01-11T11:00:30;102238.91;;;0.37;81.78
74633;BME280;63139;52.018;8.552;2024-01-11T11:02:59;102236.63;;;0.52;81.68
74633;BME280;63139;52.018;8.552;2024-01-11T11:05:28;102233.59;;;0.62;81.64
74633;BME280;63139;52.018;8.552;2024-01-11T11:08:01;102225.34;;;0.73;82.15
74633;BME280;63139;52.018;8.552;2024-01-11T11:10:31;102219.69;;;0.84;81.93
74633;BME280;63139;52.018;8.552;2024-01-11T11:13:00;102217.50;;;0.95;83.60
74633;BME280;63139;52.018;8.552;2024-01-11T11:15:28;102223.25;;;1.03;85.90
74633;BME280;63139;52.018;8.552;2024-01-11T11:17:58;102221.81;;;1.16;86.95
74633;BME280;63139;52.018;8.552;2024-01-11T11:20:27;102225.13;;;1.20;87.61
74633;BME280;63139;52.018;8.552;2024-01-11T11:23:07;102218.63;;;1.30;87.57
74633;BME280;63139;52.018;8.552;2024-01-11T11:25:36;102207.00;;;1.37;87.30
74633;BME280;63139;52.018;8.552;2024-01-11T11:28:05;102222.13;;;1.49;88.45
74633;BME280;63139;52.018;8.552;2024-01-11T11:30:37;102224.09;;;1.44;88.46
74633;BME280;63139;52.018;8.552;2024-01-11T11:33:09;102214.22;;;1.50;90.15
74633;BME280;63139;52.018;8.552;2024-01-11T11:35:38;102220.94;;;1.56;91.55
74633;BME280;63139;52.018;8.552;2024-01-11T11:38:07;102216.03;;;1.69;90.80
74633;BME280;63139;52.018;8.552;2024-01-11T11:40:37;102216.69;;;1.74;90.08
74633;BME280;63139;52.018;8.552;2024-01-11T11:43:06;102222.63;;;1.77;91.25
74633;BME280;63139;52.018;8.552;2024-01-11T11:45:34;102217.31;;;1.79;90.48
74633;BME280;63139;52.018;8.552;2024-01-11T11:51:15;102208.28;;;1.86;92.74
74633;BME280;63139;52.018;8.552;2024-01-11T11:53:46;102207.25;;;1.90;92.05
74633;BME280;63139;52.018;8.552;2024-01-11T11:56:17;102204.34;;;1.96;91.78
74633;BME280;63139;52.018;8.552;2024-01-11T11:58:45;102209.34;;;2.01;91.59
74633;BME280;63139;52.018;8.552;2024-01-11T12:01:14;102206.53;;;2.05;91.13
74633;BME280;63139;52.018;8.552;2024-01-11T12:03:44;102198.00;;;2.02;91.48
74633;BME280;63139;52.018;8.552;2024-01-11T12:06:17;102195.38;;;2.02;91.58
74633;BME280;63139;52.018;8.552;2024-01-11T12:08:47;102201.16;;;2.08;92.34
74633;BME280;63139;52.018;8.552;2024-01-11T12:11:18;102201.44;;;2.02;91.54
74633;BME280;63139;52.018;8.552;2024-01-11T12:13:46;102203.28;;;2.00;91.75
74633;BME280;63139;52.018;8.552;2024-01-11T12:16:14;102205.31;;;1.93;92.18
74633;BME280;63139;52.018;8.552;2024-01-11T12:18:42;102200.59;;;2.02;93.70
74633;BME280;63139;52.018;8.552;2024-01-11T12:21:10;102198.72;;;2.05;93.46
74633;BME280;63139;52.018;8.552;2024-01-11T12:23:40;102207.16;;;2.10;94.04
74633;BME280;63139;52.018;8.552;2024-01-11T12:26:08;102197.50;;;2.12;92.86
74633;BME280;63139;52.018;8.552;2024-01-11T12:28:41;102198.34;;;2.13;92.98
74633;BME280;63139;52.018;8.552;2024-01-11T12:31:11;102191.91;;;2.20;94.95
74633;BME280;63139;52.018;8.552;2024-01-11T12:33:39;102184.41;;;2.31;94.06
74633;BME280;63139;52.018;8.552;2024-01-11T12:36:08;102177.28;;;2.34;94.77
74633;BME280;63139;52.018;8.552;2024-01-11T12:38:37;102181.59;;;2.36;93.80
74633;BME280;63139;52.018;8.552;2024-01-11T12:41:08;102173.69;;;2.37;95.22
74633;BME280;63139;52.018;8.552;2024-01-11T12:43:37;102169.69;;;2.47;95.88
74633;BME280;63139;52.018;8.552;2024-01-11T12:46:05;102166.88;;;2.52;95.67
74633;BME280;63139;52.018;8.552;2024-01-11T12:48:34;102162.84;;;2.45;94.56
74633;BME280;63139;52.018;8.552;2024-01-11T12:51:02;102157.03;;;2.57;95.85
74633;BME280;63139;52.018;8.552;2024-01-11T12:53:44;102155.75;;;2.65;95.41
74633;BME280;63139;52.018;8.552;2024-01-11T12:56:15;102152.81;;;2.71;95.11
74633;BME280;63139;52.018;8.552;2024-01-11T12:58:43;102137.72;;;2.77;95.42
74633;BME280;63139;52.018;8.552;2024-01-11T13:01:13;102133.34;;;2.77;95.87